sensor_id;sensor_type;location;lat;lon;timestamp;P1;durP1;ratioP1;P2;durP2;ratioP2
63095;SDS011;49184;55.596;37.770;2023-05-29T00:01:54;9.98;;;3.97;;
63095;SDS011;49184;55.596;37.770;2023-05-29T00:05:52;11.55;;;4.35;;
63095;SDS011;49184;55.596;37.770;2023-05-29T00:32:45;12.52;;;3.78;;
63095;SDS011;49184;55.596;37.770;2023-05-29T00:38:37;17.50;;;4.43;;
63095;SDS011;49184;55.596;37.770;2023-05-29T00:41:03;20.85;;;4.45;;
63095;SDS011;49184;55.596;37.770;2023-05-29T00:43:32;14.43;;;4.85;;
63095;SDS011;49184;55.596;37.770;2023-05-29T00:46:24;14.00;;;3.80;;
63095;SDS011;49184;55.596;37.770;2023-05-29T00:49:02;18.10;;;4.63;;
63095;SDS011;49184;55.596;37.770;2023-05-29T00:51:34;22.83;;;4.00;;
63095;SDS011;49184;55.596;37.770;2023-05-29T00:54:06;18.45;;;4.00;;
63095;SDS011;49184;55.596;37.770;2023-05-29T00:56:43;19.02;;;3.95;;
63095;SDS011;49184;55.596;37.770;2023-05-29T00:59:26;12.48;;;4.20;;
63095;SDS011;49184;55.596;37.770;2023-05-29T01:01:59;14.45;;;4.00;;
63095;SDS011;49184;55.596;37.770;2023-05-29T01:04:32;12.23;;;3.90;;
63095;SDS011;49184;55.596;37.770;2023-05-29T01:07:29;18.58;;;4.38;;
63095;SDS011;49184;55.596;37.770;2023-05-29T01:33:37;10.00;;;3.65;;
63095;SDS011;49184;55.596;37.770;2023-05-29T01:36:25;14.30;;;3.85;;
63095;SDS011;49184;55.596;37.770;2023-05-29T01:39:08;13.57;;;3.67;;
63095;SDS011;49184;55.596;37.770;2023-05-29T01:42:01;11.80;;;3.67;;
63095;SDS011;49184;55.596;37.770;2023-05-29T01:44:37;8.02;;;3.83;;
63095;SDS011;49184;55.596;37.770;2023-05-29T01:47:52;11.02;;;3.75;;
63095;SDS011;49184;55.596;37.770;2023-05-29T01:50:18;8.02;;;3.97;;
63095;SDS011;49184;55.596;37.770;2023-05-29T01:52:46;12.70;;;3.70;;
63095;SDS011;49184;55.596;37.770;2023-05-29T01:55:12;22.07;;;4.23;;
63095;SDS011;49184;55.596;37.770;2023-05-29T01:57:38;10.10;;;4.35;;
63095;SDS011;49184;55.596;37.770;2023-05-29T02:00:06;15.88;;;4.20;;
63095;SDS011;49184;55.596;37.770;2023-05-29T02:02:42;16.83;;;4.18;;
63095;SDS011;49184;55.596;37.770;2023-05-29T02:05:08;15.48;;;3.90;;
63095;SDS011;49184;55.596;37.770;2023-05-29T02:07:37;12.48;;;4.45;;
63095;SDS011;49184;55.596;37.770;2023-05-29T02:10:09;10.50;;;4.25;;
63095;SDS011;49184;55.596;37.770;2023-05-29T02:12:38;10.38;;;3.95;;
63095;SDS011;49184;55.596;37.770;2023-05-29T02:15:05;15.27;;;4.03;;
63095;SDS011;49184;55.596;37.770;2023-05-29T02:17:33;10.30;;;4.20;;
63095;SDS011;49184;55.596;37.770;2023-05-29T02:20:02;20.65;;;4.50;;
63095;SDS011;49184;55.596;37.770;2023-05-29T02:22:30;11.48;;;4.13;;
63095;SDS011;49184;55.596;37.770;2023-05-29T02:25:05;12.05;;;4.43;;
63095;SDS011;49184;55.596;37.770;2023-05-29T02:27:40;12.63;;;4.40;;
63095;SDS011;49184;55.596;37.770;2023-05-29T02:30:10;12.40;;;3.88;;
63095;SDS011;49184;55.596;37.770;2023-05-29T02:32:48;12.07;;;4.47;;
63095;SDS011;49184;55.596;37.770;2023-05-29T02:35:16;13.82;;;3.78;;
63095;SDS011;49184;55.596;37.770;2023-05-29T02:37:49;14.90;;;3.28;;
63095;SDS011;49184;55.596;37.770;2023-05-29T02:43:12;12.82;;;4.35;;
63095;SDS011;49184;55.596;37.770;2023-05-29T02:45:39;11.60;;;3.63;;
63095;SDS011;49184;55.596;37.770;2023-05-29T02:48:16;17.00;;;4.05;;
63095;SDS011;49184;55.596;37.770;2023-05-29T02:50:48;11.23;;;3.33;;
63095;SDS011;49184;55.596;37.770;2023-05-29T02:53:29;16.10;;;3.85;;
63095;SDS011;49184;55.596;37.770;2023-05-29T02:57:22;10.63;;;3.65;;
63095;SDS011;49184;55.596;37.770;2023-05-29T03:01:40;11.38;;;3.40;;
63095;SDS011;49184;55.596;37.770;2023-05-29T03:07:04;14.32;;;3.50;;
63095;SDS011;49184;55.596;37.770;2023-05-29T03:18:50;11.02;;;3.63;;
63095;SDS011;49184;55.596;37.770;2023-05-29T03:36:40;13.75;;;3.75;;
63095;SDS011;49184;55.596;37.770;2023-05-29T03:40:34;19.40;;;4.13;;
63095;SDS011;49184;55.596;37.770;2023-05-29T03:52:38;14.88;;;3.90;;
63095;SDS011;49184;55.596;37.770;2023-05-29T04:10:08;10.13;;;3.55;;
63095;SDS011;49184;55.596;37.770;2023-05-29T04:12:35;8.30;;;3.38;;
63095;SDS011;49184;55.596;37.770;2023-05-29T04:15:02;9.55;;;3.88;;
63095;SDS011;49184;55.596;37.770;2023-05-29T04:19:56;15.70;;;3.78;;
63095;SDS011;49184;55.596;37.770;2023-05-29T04:22:24;9.80;;;3.58;;
63095;SDS011;49184;55.596;37.770;2023-05-29T04:24:58;20.45;;;4.07;;
63095;SDS011;49184;55.596;37.770;2023-05-29T04:27:25;19.88;;;3.33;;
63095;SDS011;49184;55.596;37.770;2023-05-29T04:32:19;18.33;;;3.80;;
63095;SDS011;49184;55.596;37.770;2023-05-29T04:34:48;9.40;;;3.30;;
63095;SDS011;49184;55.596;37.770;2023-05-29T04:37:15;16.67;;;3.42;;
63095;SDS011;49184;55.596;37.770;2023-05-29T04:39:45;14.85;;;4.00;;
63095;SDS011;49184;55.596;37.770;2023-05-29T04:42:51;11.27;;;3.42;;
63095;SDS011;49184;55.596;37.770;2023-05-29T04:45:19;8.95;;;4.05;;
63095;SDS011;49184;55.596;37.770;2023-05-29T04:48:06;18.70;;;3.55;;
63095;SDS011;49184;55.596;37.770;2023-05-29T04:50:34;12.93;;;3.25;;
63095;SDS011;49184;55.596;37.770;2023-05-29T04:53:03;10.15;;;3.13;;
63095;SDS011;49184;55.596;37.770;2023-05-29T04:55:40;15.32;;;3.25;;
63095;SDS011;49184;55.596;37.770;2023-05-29T04:58:06;18.25;;;3.33;;
63095;SDS011;49184;55.596;37.770;2023-05-29T05:00:33;13.00;;;3.20;;
63095;SDS011;49184;55.596;37.770;2023-05-29T05:02:59;11.82;;;3.00;;
63095;SDS011;49184;55.596;37.770;2023-05-29T05:05:25;16.43;;;4.03;;
63095;SDS011;49184;55.596;37.770;2023-05-29T05:07:56;6.55;;;2.90;;
63095;SDS011;49184;55.596;37.770;2023-05-29T05:10:48;13.13;;;2.80;;
63095;SDS011;49184;55.596;37.770;2023-05-29T05:14:01;9.63;;;3.22;;
63095;SDS011;49184;55.596;37.770;2023-05-29T05:16:29;10.88;;;2.70;;
63095;SDS011;49184;55.596;37.770;2023-05-29T05:18:56;12.73;;;3.05;;
63095;SDS011;49184;55.596;37.770;2023-05-29T05:21:22;11.85;;;3.13;;
63095;SDS011;49184;55.596;37.770;2023-05-29T05:24:16;8.07;;;3.10;;
63095;SDS011;49184;55.596;37.770;2023-05-29T05:26:48;19.05;;;4.18;;
63095;SDS011;49184;55.596;37.770;2023-05-29T05:35:35;7.05;;;3.05;;
63095;SDS011;49184;55.596;37.770;2023-05-29T05:38:17;9.07;;;2.50;;
63095;SDS011;49184;55.596;37.770;2023-05-29T05:43:44;21.02;;;3.42;;
63095;SDS011;49184;55.596;37.770;2023-05-29T05:46:36;11.77;;;3.08;;
63095;SDS011;49184;55.596;37.770;2023-05-29T05:49:05;10.98;;;3.30;;
63095;SDS011;49184;55.596;37.770;2023-05-29T05:51:31;30.17;;;4.03;;
63095;SDS011;49184;55.596;37.770;2023-05-29T05:53:57;10.80;;;3.03;;
63095;SDS011;49184;55.596;37.770;2023-05-29T05:56:25;18.77;;;3.03;;
63095;SDS011;49184;55.596;37.770;2023-05-29T05:58:51;26.48;;;4.10;;
63095;SDS011;49184;55.596;37.770;2023-05-29T06:01:25;64.72;;;5.25;;
63095;SDS011;49184;55.596;37.770;2023-05-29T06:03:56;49.50;;;4.50;;
63095;SDS011;49184;55.596;37.770;2023-05-29T06:06:23;10.80;;;2.55;;
63095;SDS011;49184;55.596;37.770;2023-05-29T06:08:49;16.23;;;3.72;;
63095;SDS011;49184;55.596;37.770;2023-05-29T06:11:15;15.73;;;4.23;;
63095;SDS011;49184;55.596;37.770;2023-05-29T06:13:44;18.13;;;4.20;;
63095;SDS011;49184;55.596;37.770;2023-05-29T06:16:37;19.40;;;3.13;;
63095;SDS011;49184;55.596;37.770;2023-05-29T06:19:03;22.03;;;3.77;;
63095;SDS011;49184;55.596;37.770;2023-05-29T06:21:35;7.25;;;2.90;;
63095;SDS011;49184;55.596;37.770;2023-05-29T06:24:03;9.75;;;2.92;;
63095;SDS011;49184;55.596;37.770;2023-05-29T06:26:33;12.05;;;2.80;;
63095;SDS011;49184;55.596;37.770;2023-05-29T06:28:59;13.88;;;3.20;;
63095;SDS011;49184;55.596;37.770;2023-05-29T06:31:26;32.42;;;8.73;;
63095;SDS011;49184;55.596;37.770;2023-05-29T06:33:55;20.48;;;4.55;;
63095;SDS011;49184;55.596;37.770;2023-05-29T06:36:22;9.52;;;3.25;;
63095;SDS011;49184;55.596;37.770;2023-05-29T06:38:51;19.75;;;3.20;;
63095;SDS011;49184;55.596;37.770;2023-05-29T06:41:19;25.17;;;4.60;;
63095;SDS011;49184;55.596;37.770;2023-05-29T06:43:47;11.38;;;4.00;;
63095;SDS011;49184;55.596;37.770;2023-05-29T06:46:23;15.20;;;3.05;;
63095;SDS011;49184;55.596;37.770;2023-05-29T06:48:49;6.82;;;2.58;;
63095;SDS011;49184;55.596;37.770;2023-05-29T06:51:16;29.70;;;4.72;;
63095;SDS011;49184;55.596;37.770;2023-05-29T06:54:03;10.38;;;2.78;;
63095;SDS011;49184;55.596;37.770;2023-05-29T06:56:32;8.55;;;3.40;;
63095;SDS011;49184;55.596;37.770;2023-05-29T06:58:58;8.77;;;2.67;;
63095;SDS011;49184;55.596;37.770;2023-05-29T07:04:27;10.30;;;2.80;;
63095;SDS011;49184;55.596;37.770;2023-05-29T07:06:53;11.70;;;3.40;;
63095;SDS011;49184;55.596;37.770;2023-05-29T07:09:19;13.48;;;3.63;;
63095;SDS011;49184;55.596;37.770;2023-05-29T07:11:46;7.47;;;3.08;;
63095;SDS011;49184;55.596;37.770;2023-05-29T07:14:12;13.50;;;3.33;;
63095;SDS011;49184;55.596;37.770;2023-05-29T07:16:39;10.60;;;3.90;;
63095;SDS011;49184;55.596;37.770;2023-05-29T07:19:06;19.42;;;4.40;;
63095;SDS011;49184;55.596;37.770;2023-05-29T07:21:36;33.45;;;5.07;;
63095;SDS011;49184;55.596;37.770;2023-05-29T07:24:03;11.07;;;4.18;;
63095;SDS011;49184;55.596;37.770;2023-05-29T07:26:29;9.95;;;3.90;;
63095;SDS011;49184;55.596;37.770;2023-05-29T07:28:56;22.10;;;3.90;;
63095;SDS011;49184;55.596;37.770;2023-05-29T07:31:22;15.20;;;3.25;;
63095;SDS011;49184;55.596;37.770;2023-05-29T07:33:49;11.30;;;3.03;;
63095;SDS011;49184;55.596;37.770;2023-05-29T07:36:16;31.20;;;4.65;;
63095;SDS011;49184;55.596;37.770;2023-05-29T07:38:49;28.45;;;4.20;;
63095;SDS011;49184;55.596;37.770;2023-05-29T07:44:42;19.38;;;3.40;;
63095;SDS011;49184;55.596;37.770;2023-05-29T07:47:11;17.20;;;4.00;;
63095;SDS011;49184;55.596;37.770;2023-05-29T07:50:23;15.32;;;6.45;;
63095;SDS011;49184;55.596;37.770;2023-05-29T07:53:02;24.30;;;4.80;;
63095;SDS011;49184;55.596;37.770;2023-05-29T07:55:29;5.85;;;3.13;;
63095;SDS011;49184;55.596;37.770;2023-05-29T07:58:36;8.48;;;2.97;;
63095;SDS011;49184;55.596;37.770;2023-05-29T08:01:02;15.25;;;3.58;;
63095;SDS011;49184;55.596;37.770;2023-05-29T08:03:31;13.50;;;4.05;;
63095;SDS011;49184;55.596;37.770;2023-05-29T08:06:24;20.00;;;5.55;;
63095;SDS011;49184;55.596;37.770;2023-05-29T08:08:51;59.08;;;16.90;;
63095;SDS011;49184;55.596;37.770;2023-05-29T08:11:18;23.48;;;8.27;;
63095;SDS011;49184;55.596;37.770;2023-05-29T08:13:46;29.77;;;4.40;;
63095;SDS011;49184;55.596;37.770;2023-05-29T08:16:12;17.42;;;3.65;;
63095;SDS011;49184;55.596;37.770;2023-05-29T08:18:39;10.57;;;3.42;;
63095;SDS011;49184;55.596;37.770;2023-05-29T08:21:05;6.93;;;2.93;;
63095;SDS011;49184;55.596;37.770;2023-05-29T08:23:33;17.13;;;3.70;;
63095;SDS011;49184;55.596;37.770;2023-05-29T08:26:00;30.63;;;5.03;;
63095;SDS011;49184;55.596;37.770;2023-05-29T08:28:28;26.90;;;6.40;;
63095;SDS011;49184;55.596;37.770;2023-05-29T08:30:54;19.45;;;3.80;;
63095;SDS011;49184;55.596;37.770;2023-05-29T08:33:20;12.45;;;3.60;;
63095;SDS011;49184;55.596;37.770;2023-05-29T08:35:46;12.82;;;3.38;;
63095;SDS011;49184;55.596;37.770;2023-05-29T08:38:13;13.77;;;3.85;;
63095;SDS011;49184;55.596;37.770;2023-05-29T08:40:51;12.98;;;3.40;;
63095;SDS011;49184;55.596;37.770;2023-05-29T08:43:29;5.68;;;3.08;;
63095;SDS011;49184;55.596;37.770;2023-05-29T08:46:00;14.90;;;3.75;;
63095;SDS011;49184;55.596;37.770;2023-05-29T08:48:28;23.95;;;7.65;;
63095;SDS011;49184;55.596;37.770;2023-05-29T08:50:56;19.65;;;10.65;;
63095;SDS011;49184;55.596;37.770;2023-05-29T08:53:24;12.93;;;4.38;;
63095;SDS011;49184;55.596;37.770;2023-05-29T08:55:51;8.85;;;4.90;;
63095;SDS011;49184;55.596;37.770;2023-05-29T08:58:23;27.75;;;4.57;;
63095;SDS011;49184;55.596;37.770;2023-05-29T09:00:51;17.65;;;3.60;;
63095;SDS011;49184;55.596;37.770;2023-05-29T09:03:17;41.67;;;5.82;;
63095;SDS011;49184;55.596;37.770;2023-05-29T09:05:45;12.25;;;3.42;;
63095;SDS011;49184;55.596;37.770;2023-05-29T09:08:11;17.17;;;4.07;;
63095;SDS011;49184;55.596;37.770;2023-05-29T09:10:43;11.65;;;3.28;;
63095;SDS011;49184;55.596;37.770;2023-05-29T09:13:11;10.40;;;3.47;;
63095;SDS011;49184;55.596;37.770;2023-05-29T09:15:39;18.75;;;4.15;;
63095;SDS011;49184;55.596;37.770;2023-05-29T09:21:48;9.38;;;3.72;;
63095;SDS011;49184;55.596;37.770;2023-05-29T09:24:34;16.20;;;4.20;;
63095;SDS011;49184;55.596;37.770;2023-05-29T09:27:03;7.28;;;3.10;;
63095;SDS011;49184;55.596;37.770;2023-05-29T09:33:47;15.93;;;3.67;;
63095;SDS011;49184;55.596;37.770;2023-05-29T09:36:20;28.42;;;4.00;;
63095;SDS011;49184;55.596;37.770;2023-05-29T09:38:47;9.48;;;3.35;;
63095;SDS011;49184;55.596;37.770;2023-05-29T09:43:52;9.77;;;3.42;;
63095;SDS011;49184;55.596;37.770;2023-05-29T09:46:20;8.18;;;3.75;;
63095;SDS011;49184;55.596;37.770;2023-05-29T09:52:20;15.23;;;4.20;;
63095;SDS011;49184;55.596;37.770;2023-05-29T09:54:47;11.88;;;3.90;;
63095;SDS011;49184;55.596;37.770;2023-05-29T09:57:25;14.98;;;4.97;;
63095;SDS011;49184;55.596;37.770;2023-05-29T09:59:53;20.20;;;4.13;;
63095;SDS011;49184;55.596;37.770;2023-05-29T10:02:20;9.23;;;4.03;;
63095;SDS011;49184;55.596;37.770;2023-05-29T10:04:47;9.98;;;3.33;;
63095;SDS011;49184;55.596;37.770;2023-05-29T10:07:20;18.17;;;3.55;;
63095;SDS011;49184;55.596;37.770;2023-05-29T10:10:18;17.67;;;4.38;;
63095;SDS011;49184;55.596;37.770;2023-05-29T10:15:47;12.52;;;3.78;;
63095;SDS011;49184;55.596;37.770;2023-05-29T10:18:38;16.55;;;3.88;;
63095;SDS011;49184;55.596;37.770;2023-05-29T10:21:06;22.55;;;3.95;;
63095;SDS011;49184;55.596;37.770;2023-05-29T10:23:57;23.58;;;7.75;;
63095;SDS011;49184;55.596;37.770;2023-05-29T10:38:12;18.90;;;3.90;;
63095;SDS011;49184;55.596;37.770;2023-05-29T10:43:58;8.48;;;3.92;;
63095;SDS011;49184;55.596;37.770;2023-05-29T10:49:17;16.95;;;3.92;;
63095;SDS011;49184;55.596;37.770;2023-05-29T10:55:17;9.50;;;3.95;;
63095;SDS011;49184;55.596;37.770;2023-05-29T10:57:55;8.00;;;3.50;;
63095;SDS011;49184;55.596;37.770;2023-05-29T11:00:22;14.80;;;4.20;;
63095;SDS011;49184;55.596;37.770;2023-05-29T11:02:51;29.52;;;5.78;;
63095;SDS011;49184;55.596;37.770;2023-05-29T11:05:56;16.80;;;4.72;;
63095;SDS011;49184;55.596;37.770;2023-05-29T11:08:35;26.27;;;6.97;;
63095;SDS011;49184;55.596;37.770;2023-05-29T11:11:39;28.42;;;10.35;;
63095;SDS011;49184;55.596;37.770;2023-05-29T11:14:10;24.05;;;8.57;;
63095;SDS011;49184;55.596;37.770;2023-05-29T11:16:36;17.17;;;5.85;;
63095;SDS011;49184;55.596;37.770;2023-05-29T11:19:09;14.45;;;5.45;;
63095;SDS011;49184;55.596;37.770;2023-05-29T11:21:58;19.17;;;6.13;;
63095;SDS011;49184;55.596;37.770;2023-05-29T11:24:52;60.75;;;5.47;;
63095;SDS011;49184;55.596;37.770;2023-05-29T11:27:19;27.23;;;5.13;;
63095;SDS011;49184;55.596;37.770;2023-05-29T11:29:46;7.93;;;3.70;;
63095;SDS011;49184;55.596;37.770;2023-05-29T11:32:14;11.90;;;3.70;;
63095;SDS011;49184;55.596;37.770;2023-05-29T11:34:42;9.60;;;4.10;;
63095;SDS011;49184;55.596;37.770;2023-05-29T11:38:16;9.68;;;4.03;;
63095;SDS011;49184;55.596;37.770;2023-05-29T11:46:31;10.35;;;3.55;;
63095;SDS011;49184;55.596;37.770;2023-05-29T11:48:58;10.40;;;3.63;;
63095;SDS011;49184;55.596;37.770;2023-05-29T11:52:59;26.20;;;4.60;;
63095;SDS011;49184;55.596;37.770;2023-05-29T11:55:27;27.13;;;4.47;;
63095;SDS011;49184;55.596;37.770;2023-05-29T11:57:57;14.05;;;3.95;;
63095;SDS011;49184;55.596;37.770;2023-05-29T12:00:45;15.00;;;3.80;;
63095;SDS011;49184;55.596;37.770;2023-05-29T12:03:17;14.95;;;4.00;;
63095;SDS011;49184;55.596;37.770;2023-05-29T12:05:49;42.33;;;5.47;;
63095;SDS011;49184;55.596;37.770;2023-05-29T12:08:22;42.92;;;6.00;;
63095;SDS011;49184;55.596;37.770;2023-05-29T12:10:50;31.83;;;4.82;;
63095;SDS011;49184;55.596;37.770;2023-05-29T12:13:20;14.80;;;4.53;;
63095;SDS011;49184;55.596;37.770;2023-05-29T12:15:47;17.50;;;4.72;;
63095;SDS011;49184;55.596;37.770;2023-05-29T12:18:19;11.90;;;4.13;;
63095;SDS011;49184;55.596;37.770;2023-05-29T12:23:53;16.02;;;6.28;;
63095;SDS011;49184;55.596;37.770;2023-05-29T12:26:24;25.85;;;4.43;;
63095;SDS011;49184;55.596;37.770;2023-05-29T12:28:53;9.75;;;4.57;;
63095;SDS011;49184;55.596;37.770;2023-05-29T12:31:27;17.15;;;5.53;;
63095;SDS011;49184;55.596;37.770;2023-05-29T12:34:29;24.27;;;5.55;;
63095;SDS011;49184;55.596;37.770;2023-05-29T12:36:48;27.73;;;5.10;;
63095;SDS011;49184;55.596;37.770;2023-05-29T12:39:14;12.20;;;4.75;;
63095;SDS011;49184;55.596;37.770;2023-05-29T12:41:41;15.45;;;5.47;;
63095;SDS011;49184;55.596;37.770;2023-05-29T12:44:07;16.38;;;4.70;;
63095;SDS011;49184;55.596;37.770;2023-05-29T12:46:41;9.20;;;4.15;;
63095;SDS011;49184;55.596;37.770;2023-05-29T12:49:13;11.50;;;4.55;;
63095;SDS011;49184;55.596;37.770;2023-05-29T12:52:40;27.90;;;4.95;;
63095;SDS011;49184;55.596;37.770;2023-05-29T12:55:10;20.75;;;5.53;;
63095;SDS011;49184;55.596;37.770;2023-05-29T12:57:55;13.88;;;4.80;;
63095;SDS011;49184;55.596;37.770;2023-05-29T13:00:43;31.75;;;6.18;;
63095;SDS011;49184;55.596;37.770;2023-05-29T13:13:05;21.02;;;4.50;;
63095;SDS011;49184;55.596;37.770;2023-05-29T13:16:26;17.40;;;5.90;;
63095;SDS011;49184;55.596;37.770;2023-05-29T13:22:16;11.45;;;4.18;;
63095;SDS011;49184;55.596;37.770;2023-05-29T13:27:58;20.38;;;7.95;;
63095;SDS011;49184;55.596;37.770;2023-05-29T13:30:40;10.20;;;4.07;;
63095;SDS011;49184;55.596;37.770;2023-05-29T13:33:09;15.38;;;4.65;;
63095;SDS011;49184;55.596;37.770;2023-05-29T13:36:00;18.38;;;5.10;;
63095;SDS011;49184;55.596;37.770;2023-05-29T13:38:29;21.02;;;6.05;;
63095;SDS011;49184;55.596;37.770;2023-05-29T13:40:55;26.42;;;5.32;;
63095;SDS011;49184;55.596;37.770;2023-05-29T13:43:26;16.42;;;6.93;;
63095;SDS011;49184;55.596;37.770;2023-05-29T13:45:52;31.33;;;6.03;;
63095;SDS011;49184;55.596;37.770;2023-05-29T13:49:11;14.25;;;6.18;;
63095;SDS011;49184;55.596;37.770;2023-05-29T13:54:32;22.08;;;5.22;;
63095;SDS011;49184;55.596;37.770;2023-05-29T13:57:02;22.73;;;6.22;;
63095;SDS011;49184;55.596;37.770;2023-05-29T13:59:34;9.60;;;4.40;;
63095;SDS011;49184;55.596;37.770;2023-05-29T14:02:06;16.90;;;4.80;;
63095;SDS011;49184;55.596;37.770;2023-05-29T14:04:34;11.38;;;5.00;;
63095;SDS011;49184;55.596;37.770;2023-05-29T14:07:47;30.52;;;6.80;;
63095;SDS011;49184;55.596;37.770;2023-05-29T14:10:21;32.67;;;8.57;;
63095;SDS011;49184;55.596;37.770;2023-05-29T14:13:03;12.50;;;5.57;;
63095;SDS011;49184;55.596;37.770;2023-05-29T14:15:34;13.90;;;4.45;;
63095;SDS011;49184;55.596;37.770;2023-05-29T14:21:32;54.13;;;13.98;;
63095;SDS011;49184;55.596;37.770;2023-05-29T14:24:00;19.05;;;5.10;;
63095;SDS011;49184;55.596;37.770;2023-05-29T14:26:26;18.95;;;5.03;;
63095;SDS011;49184;55.596;37.770;2023-05-29T14:30:06;22.42;;;5.78;;
63095;SDS011;49184;55.596;37.770;2023-05-29T14:33:03;21.83;;;5.82;;
63095;SDS011;49184;55.596;37.770;2023-05-29T14:35:44;54.30;;;7.72;;
63095;SDS011;49184;55.596;37.770;2023-05-29T14:38:12;15.52;;;5.57;;
63095;SDS011;49184;55.596;37.770;2023-05-29T14:40:42;22.77;;;5.68;;
63095;SDS011;49184;55.596;37.770;2023-05-29T14:43:18;15.07;;;5.22;;
63095;SDS011;49184;55.596;37.770;2023-05-29T14:45:50;14.20;;;5.75;;
63095;SDS011;49184;55.596;37.770;2023-05-29T14:48:17;20.65;;;5.03;;
63095;SDS011;49184;55.596;37.770;2023-05-29T14:51:08;14.82;;;4.85;;
63095;SDS011;49184;55.596;37.770;2023-05-29T14:53:43;25.27;;;9.77;;
63095;SDS011;49184;55.596;37.770;2023-05-29T14:58:35;16.77;;;5.00;;
63095;SDS011;49184;55.596;37.770;2023-05-29T15:01:35;12.60;;;4.57;;
63095;SDS011;49184;55.596;37.770;2023-05-29T15:04:46;13.65;;;4.43;;
63095;SDS011;49184;55.596;37.770;2023-05-29T15:07:13;13.57;;;4.72;;
63095;SDS011;49184;55.596;37.770;2023-05-29T15:09:54;13.38;;;5.35;;
63095;SDS011;49184;55.596;37.770;2023-05-29T15:19:51;12.68;;;4.55;;
63095;SDS011;49184;55.596;37.770;2023-05-29T15:22:24;11.20;;;4.07;;
63095;SDS011;49184;55.596;37.770;2023-05-29T15:24:59;19.20;;;4.85;;
63095;SDS011;49184;55.596;37.770;2023-05-29T15:27:46;26.42;;;5.30;;
63095;SDS011;49184;55.596;37.770;2023-05-29T15:35:09;15.85;;;4.10;;
63095;SDS011;49184;55.596;37.770;2023-05-29T15:38:59;8.75;;;4.60;;
63095;SDS011;49184;55.596;37.770;2023-05-29T15:41:29;28.83;;;6.05;;
63095;SDS011;49184;55.596;37.770;2023-05-29T15:44:22;14.70;;;5.80;;
63095;SDS011;49184;55.596;37.770;2023-05-29T15:46:54;25.13;;;5.75;;
63095;SDS011;49184;55.596;37.770;2023-05-29T15:50:09;18.33;;;6.00;;
63095;SDS011;49184;55.596;37.770;2023-05-29T15:52:38;16.58;;;5.28;;
63095;SDS011;49184;55.596;37.770;2023-05-29T15:56:37;28.08;;;6.45;;
63095;SDS011;49184;55.596;37.770;2023-05-29T16:06:45;23.38;;;7.18;;
63095;SDS011;49184;55.596;37.770;2023-05-29T16:09:34;13.82;;;5.38;;
63095;SDS011;49184;55.596;37.770;2023-05-29T16:23:44;11.55;;;4.90;;
63095;SDS011;49184;55.596;37.770;2023-05-29T16:29:23;23.15;;;6.32;;
63095;SDS011;49184;55.596;37.770;2023-05-29T16:39:22;30.83;;;7.00;;
63095;SDS011;49184;55.596;37.770;2023-05-29T16:42:18;49.90;;;7.72;;
63095;SDS011;49184;55.596;37.770;2023-05-29T16:44:44;33.10;;;6.30;;
63095;SDS011;49184;55.596;37.770;2023-05-29T16:51:45;181.32;;;28.42;;
63095;SDS011;49184;55.596;37.770;2023-05-29T17:51:13;61.45;;;14.30;;
63095;SDS011;49184;55.596;37.770;2023-05-29T17:55:06;42.38;;;13.18;;
63095;SDS011;49184;55.596;37.770;2023-05-29T17:58:35;52.22;;;13.80;;
63095;SDS011;49184;55.596;37.770;2023-05-29T18:04:56;63.40;;;20.90;;
63095;SDS011;49184;55.596;37.770;2023-05-29T18:11:12;63.17;;;20.52;;
63095;SDS011;49184;55.596;37.770;2023-05-29T18:17:50;104.50;;;37.65;;
63095;SDS011;49184;55.596;37.770;2023-05-29T18:20:20;81.70;;;31.52;;
63095;SDS011;49184;55.596;37.770;2023-05-29T18:22:49;88.43;;;31.88;;
63095;SDS011;49184;55.596;37.770;2023-05-29T18:26:36;107.68;;;34.78;;
63095;SDS011;49184;55.596;37.770;2023-05-29T19:01:38;139.52;;;36.75;;
63095;SDS011;49184;55.596;37.770;2023-05-29T19:07:11;164.40;;;41.67;;
63095;SDS011;49184;55.596;37.770;2023-05-29T19:09:43;85.20;;;23.48;;
63095;SDS011;49184;55.596;37.770;2023-05-29T19:12:09;168.70;;;42.40;;
63095;SDS011;49184;55.596;37.770;2023-05-29T19:14:37;133.05;;;34.90;;
63095;SDS011;49184;55.596;37.770;2023-05-29T19:17:03;236.18;;;60.33;;
63095;SDS011;49184;55.596;37.770;2023-05-29T19:19:35;185.40;;;51.20;;
63095;SDS011;49184;55.596;37.770;2023-05-29T19:22:14;173.68;;;47.53;;
63095;SDS011;49184;55.596;37.770;2023-05-29T19:24:42;115.25;;;31.10;;
63095;SDS011;49184;55.596;37.770;2023-05-29T19:52:28;121.50;;;34.38;;
63095;SDS011;49184;55.596;37.770;2023-05-29T19:55:01;97.07;;;29.95;;
63095;SDS011;49184;55.596;37.770;2023-05-29T20:04:10;101.70;;;29.50;;
63095;SDS011;49184;55.596;37.770;2023-05-29T20:06:53;122.32;;;30.38;;
63095;SDS011;49184;55.596;37.770;2023-05-29T20:09:19;104.07;;;29.75;;
63095;SDS011;49184;55.596;37.770;2023-05-29T20:11:52;122.73;;;30.60;;
63095;SDS011;49184;55.596;37.770;2023-05-29T20:17:19;108.00;;;25.00;;
63095;SDS011;49184;55.596;37.770;2023-05-29T20:19:51;86.10;;;23.35;;
63095;SDS011;49184;55.596;37.770;2023-05-29T20:22:21;78.22;;;19.80;;
63095;SDS011;49184;55.596;37.770;2023-05-29T20:26:32;91.53;;;20.40;;
63095;SDS011;49184;55.596;37.770;2023-05-29T20:32:04;85.20;;;20.75;;
63095;SDS011;49184;55.596;37.770;2023-05-29T20:34:30;60.60;;;18.50;;
63095;SDS011;49184;55.596;37.770;2023-05-29T20:36:56;72.07;;;19.80;;
63095;SDS011;49184;55.596;37.770;2023-05-29T20:39:47;95.72;;;18.75;;
63095;SDS011;49184;55.596;37.770;2023-05-29T20:42:19;74.75;;;17.95;;
63095;SDS011;49184;55.596;37.770;2023-05-29T20:50:57;91.97;;;18.63;;
63095;SDS011;49184;55.596;37.770;2023-05-29T20:57:27;106.40;;;18.55;;
63095;SDS011;49184;55.596;37.770;2023-05-29T20:59:56;94.50;;;20.20;;
63095;SDS011;49184;55.596;37.770;2023-05-29T21:02:40;80.05;;;18.65;;
63095;SDS011;49184;55.596;37.770;2023-05-29T21:05:12;69.25;;;18.05;;
63095;SDS011;49184;55.596;37.770;2023-05-29T21:07:43;64.97;;;19.15;;
63095;SDS011;49184;55.596;37.770;2023-05-29T21:10:09;76.05;;;17.73;;
63095;SDS011;49184;55.596;37.770;2023-05-29T21:12:38;87.55;;;17.50;;
63095;SDS011;49184;55.596;37.770;2023-05-29T21:18:33;75.20;;;16.83;;
63095;SDS011;49184;55.596;37.770;2023-05-29T21:21:09;80.43;;;19.05;;
63095;SDS011;49184;55.596;37.770;2023-05-29T21:23:40;79.97;;;18.75;;
63095;SDS011;49184;55.596;37.770;2023-05-29T21:26:15;87.30;;;19.05;;
63095;SDS011;49184;55.596;37.770;2023-05-29T21:34:55;77.72;;;17.27;;
63095;SDS011;49184;55.596;37.770;2023-05-29T21:37:29;73.55;;;18.23;;
63095;SDS011;49184;55.596;37.770;2023-05-29T21:56:31;95.13;;;19.20;;
63095;SDS011;49184;55.596;37.770;2023-05-29T21:59:15;88.15;;;20.13;;
63095;SDS011;49184;55.596;37.770;2023-05-29T22:08:39;83.93;;;19.70;;
63095;SDS011;49184;55.596;37.770;2023-05-29T22:23:06;76.13;;;17.52;;
63095;SDS011;49184;55.596;37.770;2023-05-29T22:46:46;53.58;;;17.67;;
63095;SDS011;49184;55.596;37.770;2023-05-29T22:59:33;64.07;;;16.50;;
63095;SDS011;49184;55.596;37.770;2023-05-29T23:02:12;91.13;;;18.15;;
63095;SDS011;49184;55.596;37.770;2023-05-29T23:04:38;78.85;;;17.45;;
63095;SDS011;49184;55.596;37.770;2023-05-29T23:10:40;56.90;;;16.60;;
